createdAt,value
2017-06-06T00:00:52.052Z,77.09
2017-06-06T00:01:52.045Z,77
2017-06-06T00:02:52.040Z,77.09
2017-06-06T00:03:52.037Z,77.28
2017-06-06T00:04:52.034Z,77.48
2017-06-06T00:05:52.027Z,77.28
2017-06-06T00:06:52.024Z,76.9
2017-06-06T00:07:52.018Z,77.38
2017-06-06T00:08:52.315Z,77.48
2017-06-06T00:09:52.009Z,77.28
2017-06-06T00:10:52.005Z,77.57
2017-06-06T00:11:52.000Z,77.28
2017-06-06T00:12:51.994Z,77.57
2017-06-06T00:13:51.990Z,77.57
2017-06-06T00:14:51.989Z,77.28
2017-06-06T00:15:51.982Z,77.19
2017-06-06T00:16:51.976Z,77.19
2017-06-06T00:17:51.971Z,77.09
2017-06-06T00:18:51.969Z,77.19
2017-06-06T00:19:51.963Z,77.09
2017-06-06T00:20:51.960Z,77.19
2017-06-06T00:21:51.960Z,77.28
2017-06-06T00:22:51.949Z,77.09
2017-06-06T00:23:51.947Z,77.19
2017-06-06T00:24:51.939Z,77.19
2017-06-06T00:25:51.936Z,77.28
2017-06-06T00:26:51.931Z,77.19
2017-06-06T00:27:51.927Z,77.19
2017-06-06T00:28:51.923Z,77.09
2017-06-06T00:29:51.918Z,77.48
2017-06-06T00:30:51.913Z,77.19
2017-06-06T00:31:51.605Z,77.09
2017-06-06T00:32:51.904Z,77.09
2017-06-06T00:33:51.899Z,77
2017-06-06T00:34:51.894Z,77.19
2017-06-06T00:35:51.590Z,77.09
2017-06-06T00:36:51.583Z,77.28
2017-06-06T00:37:51.880Z,77.09
2017-06-06T00:38:51.876Z,77.19
2017-06-06T00:39:51.871Z,77.28
2017-06-06T00:40:51.869Z,77
2017-06-06T00:41:51.863Z,77.28
2017-06-06T00:42:51.857Z,77.19
2017-06-06T00:43:51.857Z,77.67
2017-06-06T00:44:51.848Z,76.81
2017-06-06T00:45:51.848Z,77.19
2017-06-06T00:46:51.848Z,77.28
2017-06-06T00:47:51.835Z,76.9
2017-06-06T00:48:51.831Z,77.28
2017-06-06T00:49:51.824Z,76.9
2017-06-06T00:50:51.822Z,76.9
2017-06-06T00:51:51.815Z,77.04
2017-06-06T00:52:51.813Z,77.09
2017-06-06T00:53:51.808Z,77.09
2017-06-06T00:54:51.803Z,77.19
2017-06-06T00:55:51.799Z,77.19
2017-06-06T00:56:51.794Z,77.09
2017-06-06T00:57:51.789Z,77.19
2017-06-06T00:58:51.785Z,77.09
2017-06-06T00:59:51.780Z,77.09
2017-06-06T01:00:51.775Z,77.57
2017-06-06T01:01:51.771Z,77.19
2017-06-06T01:02:51.767Z,77.28
2017-06-06T01:03:51.762Z,77.57
2017-06-06T01:04:51.758Z,77.57
2017-06-06T01:05:51.754Z,77.48
2017-06-06T01:06:51.749Z,77.57
2017-06-06T01:07:51.743Z,77.67
2017-06-06T01:08:51.738Z,77.28
2017-06-06T01:09:51.737Z,77.38
2017-06-06T01:10:51.731Z,77.19
2017-06-06T01:11:51.725Z,77.38
2017-06-06T01:12:51.720Z,77.19
2017-06-06T01:13:51.718Z,77.19
2017-06-06T01:14:51.712Z,77.38
2017-06-06T01:15:51.707Z,77.09
2017-06-06T01:16:51.703Z,77.28
2017-06-06T01:17:51.699Z,77.57
2017-06-06T01:18:51.696Z,77.09
2017-06-06T01:19:51.385Z,77.28
2017-06-06T01:20:51.685Z,76.81
2017-06-06T01:21:51.680Z,77.28
2017-06-06T01:22:51.675Z,77.67
2017-06-06T01:23:51.673Z,76.81
2017-06-06T01:24:51.666Z,76.9
2017-06-06T01:25:51.662Z,77.48
2017-06-06T01:26:51.658Z,77.57
2017-06-06T01:27:51.687Z,77.86
2017-06-06T01:28:51.649Z,77.28
2017-06-06T01:29:51.644Z,77.33
2017-06-06T01:30:51.642Z,77.13
2017-06-06T01:31:51.636Z,77.28
2017-06-06T01:32:51.634Z,77.23
2017-06-06T01:33:51.626Z,77.09
2017-06-06T01:34:51.623Z,77.13
2017-06-06T01:35:51.617Z,77.28
2017-06-06T01:36:51.612Z,77.28
2017-06-06T01:37:51.608Z,77.19
2017-06-06T01:38:51.604Z,77.19
2017-06-06T01:39:51.600Z,77.57
2017-06-06T01:40:51.594Z,77.48
2017-06-06T01:41:51.590Z,77.42
2017-06-06T01:42:51.587Z,77.09
2017-06-06T01:43:51.583Z,77.19
2017-06-06T01:44:51.578Z,77.19
2017-06-06T01:45:51.572Z,77.28
2017-06-06T01:46:51.568Z,77.23
2017-06-06T01:47:51.565Z,77.51
2017-06-06T01:48:51.561Z,77.51
2017-06-06T01:49:51.554Z,77.33
2017-06-06T01:50:51.550Z,77.23
2017-06-06T01:51:51.545Z,77.33
2017-06-06T01:52:51.540Z,77.23
2017-06-06T01:53:51.538Z,77.51
2017-06-06T01:54:51.229Z,77.13
2017-06-06T01:55:51.529Z,77.13
2017-06-06T01:56:51.525Z,77.13
2017-06-06T01:57:51.519Z,77.23
2017-06-06T01:58:51.513Z,77.23
2017-06-06T01:59:51.510Z,77.04
2017-06-06T02:00:51.508Z,77.42
2017-06-06T02:01:51.501Z,77.13
2017-06-06T02:02:51.500Z,77.42
2017-06-06T02:03:51.491Z,77.33
2017-06-06T02:04:51.487Z,77.23
2017-06-06T02:05:51.484Z,77.42
2017-06-06T02:06:51.479Z,77.51
2017-06-06T02:07:51.474Z,77.42
2017-06-06T02:08:51.470Z,77.33
2017-06-06T02:09:51.468Z,77.42
2017-06-06T02:10:51.460Z,77.51
2017-06-06T02:11:51.457Z,77.51
2017-06-06T02:12:51.451Z,77.51
2017-06-06T02:13:51.448Z,77.23
2017-06-06T02:14:51.442Z,77.23
2017-06-06T02:15:51.438Z,77.23
2017-06-06T02:16:51.433Z,77.38
2017-06-06T02:17:51.428Z,77.42
2017-06-06T02:18:51.425Z,77.19
2017-06-06T02:19:51.423Z,77.09
2017-06-06T02:20:51.414Z,77.09
2017-06-06T02:21:51.418Z,76.71
2017-06-06T02:22:51.408Z,76.94
2017-06-06T02:23:51.403Z,77.23
2017-06-06T02:24:51.398Z,76.62
2017-06-06T02:25:51.391Z,76.71
2017-06-06T02:26:51.085Z,77.28
2017-06-06T02:27:51.389Z,77
2017-06-06T02:28:51.380Z,77.28
2017-06-06T02:29:51.378Z,76.81
2017-06-06T02:30:51.370Z,77.09
2017-06-06T02:31:51.367Z,76.71
2017-06-06T02:32:51.361Z,76.9
2017-06-06T02:33:51.357Z,76.62
2017-06-06T02:34:51.353Z,77.09
2017-06-06T02:35:51.348Z,76.81
2017-06-06T02:36:51.343Z,76.71
2017-06-06T02:37:51.339Z,77.09
2017-06-06T02:38:51.634Z,77.28
2017-06-06T02:39:51.333Z,76.9
2017-06-06T02:40:51.021Z,77
2017-06-06T02:41:51.355Z,77.28
2017-06-06T02:42:51.317Z,76.9
2017-06-06T02:43:51.311Z,76.9
2017-06-06T02:44:51.306Z,76.9
2017-06-06T02:45:51.302Z,77.28
2017-06-06T02:46:51.296Z,77.28
2017-06-06T02:47:51.292Z,77.09
2017-06-06T02:48:51.294Z,77.28
2017-06-06T02:49:51.282Z,77
2017-06-06T02:50:51.278Z,77.09
2017-06-06T02:51:51.274Z,76.71
2017-06-06T02:52:51.268Z,76.62
2017-06-06T02:53:51.269Z,76.62
2017-06-06T02:54:51.258Z,76.52
2017-06-06T02:55:51.257Z,76.62
2017-06-06T02:56:51.252Z,76.48
2017-06-06T02:57:51.245Z,76.81
2017-06-06T02:58:51.240Z,76.96
2017-06-06T02:59:51.236Z,76.96
2017-06-06T03:00:51.231Z,76.96
2017-06-06T03:01:51.225Z,77.06
2017-06-06T03:02:51.221Z,76.48
2017-06-06T03:03:51.217Z,76.96
2017-06-06T03:04:51.213Z,76.67
2017-06-06T03:05:51.207Z,76.96
2017-06-06T03:06:51.202Z,76.57
2017-06-06T03:07:51.197Z,76.96
2017-06-06T03:08:51.192Z,76.39
2017-06-06T03:09:51.188Z,76.77
2017-06-06T03:10:51.183Z,77.06
2017-06-06T03:11:51.177Z,76.77
2017-06-06T03:12:51.175Z,76.57
2017-06-06T03:13:51.167Z,76.77
2017-06-06T03:14:51.164Z,76.77
2017-06-06T03:15:51.160Z,76.57
2017-06-06T03:16:51.153Z,76.77
2017-06-06T03:17:51.150Z,76.77
2017-06-06T03:18:51.143Z,76.77
2017-06-06T03:19:51.138Z,76.77
2017-06-06T03:20:51.136Z,76.48
2017-06-06T03:21:51.128Z,76.57
2017-06-06T03:22:51.123Z,76.39
2017-06-06T03:23:51.118Z,77.25
2017-06-06T03:24:51.115Z,76.86
2017-06-06T03:25:51.112Z,76.96
2017-06-06T03:26:51.104Z,77.44
2017-06-06T03:27:51.099Z,77.57
2017-06-06T03:28:51.094Z,77.48
2017-06-06T03:29:51.115Z,77.48
2017-06-06T03:30:51.084Z,77.28
2017-06-06T03:31:51.081Z,77.19
2017-06-06T03:32:51.076Z,77.38
2017-06-06T03:33:51.071Z,77.04
2017-06-06T03:34:51.067Z,77.04
2017-06-06T03:35:51.063Z,77.13
2017-06-06T03:36:51.061Z,77.33
2017-06-06T03:37:51.056Z,77.42
2017-06-06T03:38:51.051Z,77.23
2017-06-06T03:39:51.048Z,76.98
2017-06-06T03:40:51.046Z,76.98
2017-06-06T03:41:51.040Z,76.98
2017-06-06T03:42:51.037Z,77.17
2017-06-06T03:43:51.032Z,76.82
2017-06-06T03:44:51.030Z,76.92
2017-06-06T03:45:51.026Z,76.44
2017-06-06T03:46:51.030Z,76.64
2017-06-06T03:47:51.021Z,76.67
2017-06-06T03:48:51.016Z,76.48
2017-06-06T03:49:51.017Z,76.39
2017-06-06T03:50:51.021Z,76
2017-06-06T03:51:51.011Z,75.81
2017-06-06T03:52:51.006Z,75.62
2017-06-06T03:53:51.004Z,75.43
2017-06-06T03:54:51.001Z,75.23
2017-06-06T03:55:50.999Z,75.14
2017-06-06T03:56:50.996Z,75.52
2017-06-06T03:57:50.993Z,75.37
2017-06-06T03:58:50.992Z,75.37
2017-06-06T03:59:50.990Z,75.27
2017-06-06T04:00:50.988Z,74.89
2017-06-06T04:01:50.983Z,74.98
2017-06-06T04:02:50.678Z,74.6
2017-06-06T04:03:50.978Z,74.6
2017-06-06T04:04:50.975Z,74.6
2017-06-06T04:05:50.973Z,74.51
2017-06-06T04:06:50.971Z,74.41
2017-06-06T04:07:50.967Z,74.51
2017-06-06T04:08:50.964Z,74.12
2017-06-06T04:09:50.962Z,73.9
2017-06-06T04:10:50.959Z,74.12
2017-06-06T04:11:50.960Z,73.99
2017-06-06T04:12:50.956Z,74.89
2017-06-06T04:13:50.648Z,74.69
2017-06-06T04:14:50.951Z,74.98
2017-06-06T04:15:50.949Z,74.69
2017-06-06T04:16:50.640Z,75.46
2017-06-06T04:17:50.939Z,75.18
2017-06-06T04:18:50.938Z,75.31
2017-06-06T04:19:50.936Z,75.4
2017-06-06T04:20:50.935Z,75.31
2017-06-06T04:21:50.931Z,74.73
2017-06-06T04:22:50.929Z,74.83
2017-06-06T04:23:50.622Z,75.12
2017-06-06T04:24:50.926Z,75.12
2017-06-06T04:25:50.921Z,75.02
2017-06-06T04:26:50.920Z,75.12
2017-06-06T04:27:50.918Z,74.96
2017-06-06T04:28:50.915Z,75.15
2017-06-06T04:29:50.914Z,74.87
2017-06-06T04:30:50.911Z,75.25
2017-06-06T04:31:50.911Z,75.06
2017-06-06T04:32:50.913Z,74.96
2017-06-06T04:33:50.918Z,75.29
2017-06-06T04:34:50.905Z,75.1
2017-06-06T04:35:50.905Z,74.81
2017-06-06T04:36:50.902Z,75.42
2017-06-06T04:37:50.901Z,74.94
2017-06-06T04:38:50.900Z,74.46
2017-06-06T04:39:50.902Z,74.08
2017-06-06T04:40:50.898Z,74.27
2017-06-06T04:41:50.897Z,73.98
2017-06-06T04:42:50.898Z,74.08
2017-06-06T04:43:50.896Z,73.98
2017-06-06T04:44:50.894Z,73.98
2017-06-06T04:45:50.893Z,74.69
2017-06-06T04:46:50.890Z,76.36
2017-06-06T04:47:50.893Z,76.4
2017-06-06T04:48:50.926Z,76.78
2017-06-06T04:49:50.892Z,76.53
2017-06-06T04:50:50.891Z,75.9
2017-06-06T04:51:50.894Z,74.26
2017-06-06T04:52:50.589Z,73.68
2017-06-06T04:53:50.893Z,72.63
2017-06-06T04:54:50.899Z,72.63
2017-06-06T04:55:50.895Z,72.43
2017-06-06T04:56:50.896Z,73.01
2017-06-06T04:57:50.897Z,72.43
2017-06-06T04:58:50.900Z,72.72
2017-06-06T04:59:50.900Z,72.72
2017-06-06T05:00:50.902Z,72.43
2017-06-06T05:01:50.901Z,72.33
2017-06-06T05:02:50.904Z,71.85
2017-06-06T05:03:50.905Z,71.76
2017-06-06T05:04:50.907Z,71.85
2017-06-06T05:07:50.909Z,71.89
2017-06-06T05:08:50.911Z,72.66
2017-06-06T05:09:50.912Z,71.79
2017-06-06T05:10:50.914Z,71.85
2017-06-06T05:11:50.916Z,71.47
2017-06-06T05:12:50.916Z,71.7
2017-06-06T05:13:50.917Z,71.89
2017-06-06T05:14:50.919Z,71.31
2017-06-06T05:15:50.923Z,69.54
2017-06-06T05:16:50.921Z,70.31
2017-06-06T05:17:50.922Z,70.6
2017-06-06T05:18:50.924Z,71.47
2017-06-06T05:19:50.925Z,71.66
2017-06-06T05:20:50.926Z,72.05
2017-06-06T05:21:50.930Z,72.24
2017-06-06T05:22:50.627Z,72.47
2017-06-06T05:23:50.930Z,72.85
2017-06-06T05:24:50.931Z,72.75
2017-06-06T05:25:50.936Z,72.56
2017-06-06T05:26:50.633Z,72.37
2017-06-06T05:27:50.634Z,73.43
2017-06-06T05:28:50.942Z,73.75
2017-06-06T05:29:50.945Z,74.24
2017-06-06T05:30:50.638Z,73.6
2017-06-06T05:31:50.641Z,73.5
2017-06-06T05:32:50.945Z,73.35
2017-06-06T05:33:50.949Z,73.11
2017-06-06T05:34:50.951Z,72.77
2017-06-06T05:35:50.954Z,72.48
2017-06-06T05:36:50.957Z,71.51
2017-06-06T05:37:50.960Z,71.32
2017-06-06T05:38:50.659Z,71.61
2017-06-06T05:39:50.664Z,72.19
2017-06-06T05:40:50.967Z,72
2017-06-06T05:41:50.970Z,71.51
2017-06-06T05:42:50.973Z,70.8
2017-06-06T05:43:50.975Z,70.8
2017-06-06T05:44:50.978Z,71.09
2017-06-06T05:45:50.984Z,70.42
2017-06-06T05:46:50.987Z,71
2017-06-06T05:47:50.986Z,71.38
2017-06-06T05:48:50.987Z,70.8
2017-06-06T05:49:50.993Z,70.7
2017-06-06T05:50:50.992Z,69.93
2017-06-06T05:51:50.994Z,69.93
2017-06-06T05:52:50.997Z,70.09
2017-06-06T05:53:51.001Z,70.67
2017-06-06T05:54:51.003Z,71.25
2017-06-06T05:55:51.004Z,71.92
2017-06-06T05:56:51.004Z,72.41
2017-06-06T05:57:51.007Z,73.27
2017-06-06T05:58:51.011Z,73.47
2017-06-06T05:59:51.014Z,73.02
2017-06-06T06:00:51.015Z,73.21
2017-06-06T06:01:51.025Z,72.54
2017-06-06T06:02:51.022Z,71.96
2017-06-06T06:03:50.720Z,72.54
2017-06-06T06:04:50.721Z,73.02
2017-06-06T06:05:51.027Z,72.25
2017-06-06T06:06:51.030Z,72.73
2017-06-06T06:07:51.034Z,73.02
2017-06-06T06:08:51.031Z,73.83
2017-06-06T06:09:51.033Z,73.54
2017-06-06T06:10:51.038Z,73.99
2017-06-06T06:11:51.041Z,73.83
2017-06-06T06:12:50.738Z,73.93
2017-06-06T06:13:51.044Z,73.15
2017-06-06T06:14:51.048Z,73.44
2017-06-06T06:15:51.049Z,73.25
2017-06-06T06:16:51.052Z,73.54
2017-06-06T06:17:51.053Z,72.96
2017-06-06T06:18:51.053Z,72.19
2017-06-06T06:19:51.055Z,71.9
2017-06-06T06:20:51.059Z,71.09
2017-06-06T06:21:51.059Z,70.51
2017-06-06T06:22:51.070Z,71.19
2017-06-06T06:23:51.063Z,71.19
2017-06-06T06:24:51.066Z,71.09
2017-06-06T06:25:51.065Z,71.54
2017-06-06T06:26:51.067Z,71.92
2017-06-06T06:27:51.081Z,72.21
2017-06-06T06:28:51.072Z,72.5
2017-06-06T06:29:51.073Z,73.31
2017-06-06T06:30:51.074Z,72.54
2017-06-06T06:31:51.077Z,73.02
2017-06-06T06:32:51.081Z,73.89
2017-06-06T06:33:51.082Z,73.89
2017-06-06T06:34:51.086Z,73.63
2017-06-06T06:35:51.086Z,73.35
2017-06-06T06:36:51.088Z,72.96
2017-06-06T06:37:51.095Z,74.31
2017-06-06T06:38:51.098Z,74.21
2017-06-06T06:39:51.096Z,74.25
2017-06-06T06:40:51.100Z,74.35
2017-06-06T06:41:51.103Z,71.39
2017-06-06T06:42:51.105Z,71.97
2017-06-06T06:43:51.108Z,71.84
2017-06-06T06:44:51.113Z,72.71
2017-06-06T06:45:51.115Z,73.28
2017-06-06T06:46:51.119Z,74.19
2017-06-06T06:47:51.121Z,73.32
2017-06-06T06:48:51.124Z,73.42
2017-06-06T06:49:51.128Z,72.84
2017-06-06T06:50:51.134Z,72.49
2017-06-06T06:51:51.136Z,72.58
2017-06-06T06:52:50.835Z,73.55
2017-06-06T06:53:50.838Z,74.32
2017-06-06T06:54:51.151Z,73.3
2017-06-06T06:55:51.149Z,73.78
2017-06-06T06:56:51.153Z,74.21
2017-06-06T06:57:51.158Z,73.04
2017-06-06T06:58:50.859Z,73.43
2017-06-06T06:59:51.167Z,71.59
2017-06-06T07:00:51.172Z,70.82
2017-06-06T07:01:51.178Z,71.11
2017-06-06T07:02:51.178Z,70.53
2017-06-06T07:03:51.185Z,70.2
2017-06-06T07:04:51.190Z,69.82
2017-06-06T07:05:51.191Z,69.78
2017-06-06T07:06:51.195Z,70.36
2017-06-06T07:07:51.197Z,70.46
2017-06-06T07:08:51.203Z,70.56
2017-06-06T07:09:51.206Z,71.39
2017-06-06T07:10:51.210Z,71.39
2017-06-06T07:11:51.213Z,71.88
2017-06-06T07:12:51.220Z,70.72
2017-06-06T07:13:51.221Z,71.58
2017-06-06T07:14:51.222Z,72.49
2017-06-06T07:15:51.226Z,73.55
2017-06-06T07:16:51.227Z,71.72
2017-06-06T07:17:51.235Z,69.3
2017-06-06T07:18:51.234Z,68.33
2017-06-06T07:19:51.240Z,69.65
2017-06-06T07:20:51.241Z,69.36
2017-06-06T07:21:51.246Z,69.07
2017-06-06T07:22:51.250Z,69.94
2017-06-06T07:23:51.253Z,71
2017-06-06T07:24:51.254Z,70.72
2017-06-06T07:25:51.258Z,71.3
2017-06-06T07:26:51.262Z,71.3
2017-06-06T07:27:51.261Z,70.9
2017-06-06T07:28:51.264Z,71.48
2017-06-06T07:29:51.268Z,71.1
2017-06-06T07:30:51.272Z,70.14
2017-06-06T07:31:51.271Z,69.52
2017-06-06T07:32:51.275Z,69.23
2017-06-06T07:33:51.281Z,68.55
2017-06-06T07:34:51.280Z,69.39
2017-06-06T07:35:51.284Z,69.52
2017-06-06T07:36:51.284Z,69.2
2017-06-06T07:37:51.286Z,69.39
2017-06-06T07:38:51.288Z,70.84
2017-06-06T07:39:51.292Z,71
2017-06-06T07:40:51.295Z,71.48
2017-06-06T07:41:51.293Z,71.8
2017-06-06T07:42:51.298Z,71.32
2017-06-06T07:43:51.298Z,71.09
2017-06-06T07:44:51.299Z,71.03
2017-06-06T07:45:51.301Z,71.09
2017-06-06T07:46:51.301Z,71.28
2017-06-06T07:47:51.305Z,71.86
2017-06-06T07:48:51.305Z,71.28
2017-06-06T07:49:51.308Z,71.96
2017-06-06T07:50:51.306Z,71.86
2017-06-06T07:51:51.310Z,71.09
2017-06-06T07:52:51.310Z,71.86
2017-06-06T07:53:51.311Z,69.84
2017-06-06T07:54:51.312Z,69.84
2017-06-06T07:55:51.314Z,70.32
2017-06-06T07:56:51.314Z,70.9
2017-06-06T07:57:51.319Z,71.34
2017-06-06T07:58:51.319Z,70.76
2017-06-06T07:59:51.320Z,71.83
2017-06-06T08:00:51.317Z,71.83
2017-06-06T08:01:51.015Z,72.54
2017-06-06T08:02:51.320Z,72.89
2017-06-06T08:03:51.352Z,72.83
2017-06-06T08:04:51.321Z,72.25
2017-06-06T08:05:51.322Z,72.63
2017-06-06T08:06:51.323Z,71.77
2017-06-06T08:07:51.326Z,71.77
2017-06-06T08:08:51.323Z,72.54
2017-06-06T08:09:51.327Z,72.83
2017-06-06T08:10:51.327Z,72.73
2017-06-06T08:11:51.328Z,73.11
2017-06-06T08:12:51.354Z,73.21
2017-06-06T08:13:51.329Z,72.73
2017-06-06T08:14:51.328Z,72.15
2017-06-06T08:15:51.330Z,72.34
2017-06-06T08:16:51.331Z,72.92
2017-06-06T08:17:51.330Z,72.44
2017-06-06T08:18:51.334Z,72.25
2017-06-06T08:19:51.332Z,72.25
2017-06-06T08:20:51.333Z,72.54
2017-06-06T08:21:51.333Z,73.21
2017-06-06T08:22:51.334Z,73.5
2017-06-06T08:23:51.334Z,73.31
2017-06-06T08:24:51.336Z,73.41
2017-06-06T08:25:51.337Z,73.31
2017-06-06T08:26:51.337Z,73.83
2017-06-06T08:27:51.337Z,74.31
2017-06-06T08:28:51.338Z,74.21
2017-06-06T08:29:51.342Z,73.63
2017-06-06T08:30:51.338Z,73.15
2017-06-06T08:31:51.340Z,72.86
2017-06-06T08:32:51.343Z,73.06
2017-06-06T08:33:51.341Z,72.86
2017-06-06T08:34:51.345Z,73.35
2017-06-06T08:35:51.345Z,73.28
2017-06-06T08:36:51.348Z,70.97
2017-06-06T08:37:51.346Z,71.06
2017-06-06T08:38:51.348Z,70.54
2017-06-06T08:39:51.047Z,71.61
2017-06-06T08:40:51.350Z,70.74
2017-06-06T08:41:51.350Z,71.12
2017-06-06T08:42:51.049Z,71.42
2017-06-06T08:43:51.354Z,71.9
2017-06-06T08:44:51.353Z,71.9
2017-06-06T08:45:51.357Z,71.94
2017-06-06T08:46:51.360Z,71.61
2017-06-06T08:47:51.394Z,72.03
2017-06-06T08:48:51.362Z,72.9
2017-06-06T08:49:51.057Z,72.61
2017-06-06T08:50:51.361Z,73.38
2017-06-06T08:51:51.060Z,72.55
2017-06-06T08:52:51.062Z,72.55
2017-06-06T08:53:51.367Z,71.78
2017-06-06T08:54:51.368Z,72.55
2017-06-06T08:55:51.370Z,72
2017-06-06T08:56:51.378Z,72.2
2017-06-06T08:57:51.375Z,72.3
2017-06-06T08:58:51.073Z,72.39
2017-06-06T08:59:51.076Z,72.39
2017-06-06T09:00:51.382Z,71.23
2017-06-06T09:01:51.380Z,69.3
2017-06-06T09:02:51.384Z,67.46
2017-06-06T09:03:51.388Z,68.4
2017-06-06T09:04:51.387Z,68.4
2017-06-06T09:05:51.390Z,68.59
2017-06-06T09:06:51.089Z,69.07
2017-06-06T09:07:51.392Z,68.68
2017-06-06T09:08:51.395Z,67.04
2017-06-06T09:09:51.395Z,67.3
2017-06-06T09:10:51.395Z,67.01
2017-06-06T09:11:51.398Z,67.01
2017-06-06T09:12:51.406Z,67.59
2017-06-06T09:13:51.402Z,67.11
2017-06-06T09:14:51.101Z,66.91
2017-06-06T09:15:51.405Z,68.26
2017-06-06T09:16:51.406Z,68.17
2017-06-06T09:17:51.408Z,67.59
2017-06-06T09:18:51.409Z,68.94
2017-06-06T09:19:51.411Z,68.65
2017-06-06T09:20:51.414Z,68.65
2017-06-06T09:21:51.414Z,68.94
2017-06-06T09:22:51.115Z,68.75
2017-06-06T09:23:51.116Z,67.69
2017-06-06T09:24:51.419Z,68.07
2017-06-06T09:25:51.420Z,69.42
2017-06-06T09:26:51.119Z,68.46
2017-06-06T09:27:51.121Z,68.78
2017-06-06T09:28:51.121Z,69.94
2017-06-06T09:29:51.122Z,69.56
2017-06-06T09:30:51.459Z,70.56
2017-06-06T09:31:51.127Z,70.65
2017-06-06T09:32:51.432Z,69.62
2017-06-06T09:33:51.439Z,67.4
2017-06-06T09:34:51.133Z,68.69
2017-06-06T09:35:51.440Z,69.66
2017-06-06T09:36:51.141Z,67.95
2017-06-06T09:37:51.140Z,67.18
2017-06-06T09:38:51.447Z,67.88
2017-06-06T09:39:51.451Z,66.92
2017-06-06T09:40:51.455Z,68.3
2017-06-06T09:41:51.156Z,68.6
2017-06-06T09:42:51.464Z,68.34
2017-06-06T09:43:51.164Z,62.95
2017-06-06T09:44:51.166Z,63.91
2017-06-06T09:45:51.474Z,63.95
2017-06-06T09:46:51.477Z,61.52
2017-06-06T09:47:51.485Z,62.1
2017-06-06T09:48:51.488Z,60.94
2017-06-06T09:49:51.495Z,59.97
2017-06-06T09:50:51.194Z,60.32
2017-06-06T09:51:51.201Z,62.95
2017-06-06T09:52:51.508Z,59.55
2017-06-06T09:53:51.512Z,60.23
2017-06-06T09:54:51.215Z,60.3
2017-06-06T09:55:51.524Z,60.78
2017-06-06T09:56:51.529Z,63.4
2017-06-06T09:57:51.532Z,58.84
2017-06-06T09:58:51.536Z,59
2017-06-06T09:59:51.544Z,59.78
2017-06-06T10:00:51.550Z,59.97
2017-06-06T10:01:51.550Z,59.97
2017-06-06T10:02:51.555Z,60.07
2017-06-06T10:03:51.561Z,59.69
2017-06-06T10:04:51.563Z,59.94
2017-06-06T10:05:51.264Z,61.4
2017-06-06T10:06:51.574Z,62.95
2017-06-06T10:07:51.580Z,60.43
2017-06-06T10:08:51.581Z,59.66
2017-06-06T10:09:51.584Z,60.14
2017-06-06T10:10:51.589Z,59.27
2017-06-06T10:11:51.594Z,59.27
2017-06-06T10:12:51.625Z,61.01
2017-06-06T10:13:51.600Z,58.91
2017-06-06T10:14:51.606Z,61.33
2017-06-06T10:15:51.608Z,59.78
2017-06-06T10:16:51.612Z,58.81
2017-06-06T10:17:51.616Z,62.79
2017-06-06T10:18:51.622Z,57.75
2017-06-06T10:19:51.624Z,61.62
2017-06-06T10:20:51.629Z,59.71
2017-06-06T10:21:51.633Z,59.23
2017-06-06T10:22:51.637Z,59.03
2017-06-06T10:23:51.641Z,59.52
2017-06-06T10:24:51.648Z,60.61
2017-06-06T10:25:51.651Z,59.77
2017-06-06T10:26:51.655Z,58.12
2017-06-06T10:27:51.659Z,59.03
2017-06-06T10:28:51.665Z,59.7
2017-06-06T10:29:51.674Z,62.71
2017-06-06T10:30:51.678Z,58.08
2017-06-06T10:31:51.680Z,61.77
2017-06-06T10:32:51.685Z,57.5
2017-06-06T10:33:51.699Z,58.08
2017-06-06T10:34:51.393Z,57.69
2017-06-06T10:35:51.701Z,57.31
2017-06-06T10:36:51.705Z,57.01
2017-06-06T10:37:51.407Z,56.92
2017-06-06T10:38:51.414Z,57.43
2017-06-06T10:39:51.724Z,56.65
2017-06-06T10:40:51.728Z,55.88
2017-06-06T10:41:51.736Z,54.03
2017-06-06T10:42:51.741Z,52.37
2017-06-06T10:43:51.747Z,52.67
2017-06-06T10:44:51.450Z,52.31
2017-06-06T10:45:51.759Z,52.5
2017-06-06T10:46:51.764Z,50.73
2017-06-06T10:47:51.770Z,50.24
2017-06-06T10:48:51.777Z,50.14
2017-06-06T10:49:51.784Z,51.09
2017-06-06T10:50:51.789Z,49.63
2017-06-06T10:51:51.800Z,50.68
2017-06-06T10:52:51.801Z,50.29
2017-06-06T10:53:51.805Z,51.16
2017-06-06T10:54:51.811Z,51.43
2017-06-06T10:55:51.816Z,50.56
2017-06-06T10:56:51.826Z,50.94
2017-06-06T10:57:51.828Z,51.11
2017-06-06T10:58:51.833Z,50.92
2017-06-06T10:59:51.869Z,50.89
2017-06-06T11:00:51.842Z,50.79
2017-06-06T11:01:51.854Z,51.09
2017-06-06T11:02:51.852Z,51.45
2017-06-06T11:03:51.859Z,51.54
2017-06-06T11:04:51.862Z,51.16
2017-06-06T11:05:51.866Z,51.64
2017-06-06T11:06:51.868Z,51.06
2017-06-06T11:07:51.872Z,51.64
2017-06-06T11:08:51.876Z,52.2
2017-06-06T11:09:51.885Z,52.2
2017-06-06T11:10:51.885Z,52.78
2017-06-06T11:11:51.893Z,53.17
2017-06-06T11:12:51.893Z,53.17
2017-06-06T11:13:51.895Z,53.07
2017-06-06T11:14:51.898Z,52.2
2017-06-06T11:15:51.902Z,52.29
2017-06-06T11:16:51.910Z,52.29
2017-06-06T11:17:51.907Z,52.58
2017-06-06T11:18:51.912Z,52.58
2017-06-06T11:19:51.916Z,52.39
2017-06-06T11:20:51.918Z,52.78
2017-06-06T11:21:51.921Z,53.14
2017-06-06T11:22:51.923Z,52.95
2017-06-06T11:23:51.927Z,52.46
2017-06-06T11:24:51.930Z,52.85
2017-06-06T11:25:51.931Z,53.53
2017-06-06T11:26:51.936Z,53.91
2017-06-06T11:27:51.939Z,53.72
2017-06-06T11:28:51.940Z,53.81
2017-06-06T11:29:51.946Z,53.91
2017-06-06T11:30:51.947Z,53.91
2017-06-06T11:31:51.953Z,53.69
2017-06-06T11:32:51.950Z,54.66
2017-06-06T11:33:51.954Z,54.17
2017-06-06T11:34:51.956Z,54.27
2017-06-06T11:35:51.960Z,54.47
2017-06-06T11:36:51.962Z,54.27
2017-06-06T11:37:52.215Z,54.85
2017-06-06T11:38:52.001Z,54.85
2017-06-06T11:39:51.970Z,54.85
2017-06-06T11:40:51.975Z,54.95
2017-06-06T11:41:51.975Z,54.66
2017-06-06T11:42:51.976Z,55.43
2017-06-06T11:43:51.672Z,55.24
2017-06-06T11:44:51.982Z,55.63
2017-06-06T11:45:51.982Z,55.53
2017-06-06T11:46:51.987Z,55.24
2017-06-06T11:47:51.986Z,55.92
2017-06-06T11:48:51.988Z,55.34
2017-06-06T11:49:51.991Z,55.63
2017-06-06T11:50:51.992Z,55.43
2017-06-06T11:51:51.995Z,56.21
2017-06-06T11:52:51.997Z,55.53
2017-06-06T11:53:52.000Z,55.43
2017-06-06T11:54:52.001Z,56.3
2017-06-06T11:55:52.004Z,56.3
2017-06-06T11:56:52.005Z,55.43
2017-06-06T11:57:52.006Z,56.21
2017-06-06T11:58:52.008Z,55.43
2017-06-06T11:59:52.014Z,55.34
2017-06-06T12:00:52.014Z,55.53
2017-06-06T12:01:52.015Z,55.53
2017-06-06T12:02:52.016Z,56.21
2017-06-06T12:03:52.023Z,56.21
2017-06-06T12:04:52.019Z,56.11
2017-06-06T12:05:52.022Z,55.82
2017-06-06T12:06:52.028Z,56.24
2017-06-06T12:07:52.030Z,56.21
2017-06-06T12:08:52.031Z,55.73
2017-06-06T12:09:52.030Z,56.21
2017-06-06T12:10:51.733Z,56.3
2017-06-06T12:11:52.034Z,55.73
2017-06-06T12:12:52.036Z,56.24
2017-06-06T12:13:52.040Z,56.11
2017-06-06T12:14:52.045Z,55.94
2017-06-06T12:15:52.044Z,56.34
2017-06-06T12:16:52.044Z,56.24
2017-06-06T12:17:52.049Z,55.76
2017-06-06T12:18:52.050Z,55.66
2017-06-06T12:19:52.053Z,55.56
2017-06-06T12:20:52.053Z,55.66
2017-06-06T12:21:52.057Z,56.14
2017-06-06T12:22:52.057Z,55.56
2017-06-06T12:23:52.062Z,56.34
2017-06-06T12:24:52.061Z,55.56
2017-06-06T12:25:52.065Z,55.56
2017-06-06T12:26:52.068Z,55.46
2017-06-06T12:27:52.068Z,55.46
2017-06-06T12:28:52.071Z,55.3
2017-06-06T12:29:52.073Z,55.49
2017-06-06T12:30:52.077Z,55.3
2017-06-06T12:31:52.078Z,55.1
2017-06-06T12:32:52.080Z,55.42
2017-06-06T12:33:52.083Z,55.13
2017-06-06T12:34:52.095Z,54.84
2017-06-06T12:35:52.089Z,55.04
2017-06-06T12:36:52.095Z,55.32
2017-06-06T12:37:52.096Z,54.38
2017-06-06T12:38:52.099Z,54.28
2017-06-06T12:39:51.799Z,54.19
2017-06-06T12:40:52.103Z,54.77
2017-06-06T12:41:52.106Z,54.96
2017-06-06T12:42:52.110Z,54.96
2017-06-06T12:43:52.113Z,53.92
2017-06-06T12:44:52.119Z,54.02
2017-06-06T12:45:52.119Z,53.66
2017-06-06T12:46:51.821Z,52.98
2017-06-06T12:47:51.823Z,53.37
2017-06-06T12:48:52.130Z,52.5
2017-06-06T12:49:52.135Z,51.75
2017-06-06T12:50:52.137Z,51.84
2017-06-06T12:51:52.141Z,52.03
2017-06-06T12:52:52.144Z,51.75
2017-06-06T12:53:52.150Z,51.75
2017-06-06T12:54:52.153Z,51.16
2017-06-06T12:55:52.157Z,51.57
2017-06-06T12:56:52.161Z,51.09
2017-06-06T12:57:52.166Z,51.11
2017-06-06T12:58:52.171Z,50.24